sensor_id;sensor_type;location;lat;lon;timestamp;P1;durP1;ratioP1;P2;durP2;ratioP2
934;SDS011;454;53.254;10.400;2022-12-24T05:02:22;2.65;;;2.42;;
934;SDS011;454;53.254;10.400;2022-12-24T05:04:49;5.82;;;2.97;;
934;SDS011;454;53.254;10.400;2022-12-24T05:07:15;2.00;;;1.90;;
934;SDS011;454;53.254;10.400;2022-12-24T05:09:42;4.93;;;1.92;;
934;SDS011;454;53.254;10.400;2022-12-24T05:12:09;2.45;;;2.20;;
934;SDS011;454;53.254;10.400;2022-12-24T05:14:36;3.55;;;3.08;;
934;SDS011;454;53.254;10.400;2022-12-24T05:17:02;7.65;;;4.18;;
934;SDS011;454;53.254;10.400;2022-12-24T05:19:30;3.28;;;2.90;;
934;SDS011;454;53.254;10.400;2022-12-24T05:21:57;3.80;;;2.17;;
934;SDS011;454;53.254;10.400;2022-12-24T05:24:41;4.80;;;4.38;;
934;SDS011;454;53.254;10.400;2022-12-24T05:27:25;3.63;;;1.83;;
934;SDS011;454;53.254;10.400;2022-12-24T05:29:53;5.43;;;3.83;;
934;SDS011;454;53.254;10.400;2022-12-24T05:32:20;3.85;;;3.38;;
934;SDS011;454;53.254;10.400;2022-12-24T05:34:48;2.72;;;2.63;;
934;SDS011;454;53.254;10.400;2022-12-24T05:37:15;4.72;;;2.05;;
934;SDS011;454;53.254;10.400;2022-12-24T05:39:41;2.40;;;0.90;;
934;SDS011;454;53.254;10.400;2022-12-24T05:42:08;7.30;;;1.13;;
934;SDS011;454;53.254;10.400;2022-12-24T05:44:35;2.78;;;2.60;;
934;SDS011;454;53.254;10.400;2022-12-24T05:47:02;2.90;;;2.55;;
934;SDS011;454;53.254;10.400;2022-12-24T05:49:28;4.47;;;3.20;;
934;SDS011;454;53.254;10.400;2022-12-24T05:51:57;1.73;;;1.63;;
934;SDS011;454;53.254;10.400;2022-12-24T05:54:24;2.67;;;2.47;;
934;SDS011;454;53.254;10.400;2022-12-24T05:56:50;1.13;;;1.05;;
934;SDS011;454;53.254;10.400;2022-12-24T05:59:17;2.80;;;2.10;;
934;SDS011;454;53.254;10.400;2022-12-24T06:01:44;2.38;;;2.15;;
934;SDS011;454;53.254;10.400;2022-12-24T06:04:12;2.63;;;2.38;;
934;SDS011;454;53.254;10.400;2022-12-24T06:06:38;2.03;;;1.67;;
934;SDS011;454;53.254;10.400;2022-12-24T06:09:06;2.38;;;1.80;;
934;SDS011;454;53.254;10.400;2022-12-24T06:11:34;6.15;;;2.17;;
934;SDS011;454;53.254;10.400;2022-12-24T06:14:00;1.38;;;1.27;;
934;SDS011;454;53.254;10.400;2022-12-24T06:16:27;3.90;;;2.55;;
934;SDS011;454;53.254;10.400;2022-12-24T06:18:54;5.65;;;2.90;;
934;SDS011;454;53.254;10.400;2022-12-24T06:21:21;2.58;;;2.42;;
934;SDS011;454;53.254;10.400;2022-12-24T06:23:48;2.90;;;2.67;;
934;SDS011;454;53.254;10.400;2022-12-24T06:26:16;5.00;;;1.92;;
934;SDS011;454;53.254;10.400;2022-12-24T06:28:44;3.20;;;2.95;;
934;SDS011;454;53.254;10.400;2022-12-24T06:31:14;2.80;;;1.70;;
934;SDS011;454;53.254;10.400;2022-12-24T06:33:42;4.97;;;1.75;;
934;SDS011;454;53.254;10.400;2022-12-24T06:36:10;4.97;;;1.98;;
934;SDS011;454;53.254;10.400;2022-12-24T06:38:39;3.35;;;2.67;;
934;SDS011;454;53.254;10.400;2022-12-24T06:41:06;3.17;;;1.77;;
934;SDS011;454;53.254;10.400;2022-12-24T06:43:35;1.45;;;1.33;;
934;SDS011;454;53.254;10.400;2022-12-24T06:46:02;1.85;;;1.75;;
934;SDS011;454;53.254;10.400;2022-12-24T06:48:30;3.38;;;1.88;;
934;SDS011;454;53.254;10.400;2022-12-24T06:50:56;8.50;;;1.98;;
934;SDS011;454;53.254;10.400;2022-12-24T06:53:23;1.85;;;1.50;;
934;SDS011;454;53.254;10.400;2022-12-24T06:55:50;1.58;;;1.48;;
934;SDS011;454;53.254;10.400;2022-12-24T06:58:16;2.75;;;2.55;;
934;SDS011;454;53.254;10.400;2022-12-24T07:00:46;2.42;;;2.22;;
934;SDS011;454;53.254;10.400;2022-12-24T07:03:13;3.22;;;3.13;;
934;SDS011;454;53.254;10.400;2022-12-24T07:05:40;2.15;;;2.05;;
934;SDS011;454;53.254;10.400;2022-12-24T07:08:07;1.90;;;1.77;;
934;SDS011;454;53.254;10.400;2022-12-24T07:10:34;1.13;;;1.05;;
934;SDS011;454;53.254;10.400;2022-12-24T07:13:00;2.70;;;1.73;;
934;SDS011;454;53.254;10.400;2022-12-24T07:15:27;4.40;;;2.58;;
934;SDS011;454;53.254;10.400;2022-12-24T07:17:55;1.58;;;0.80;;
934;SDS011;454;53.254;10.400;2022-12-24T07:20:22;3.00;;;2.80;;
934;SDS011;454;53.254;10.400;2022-12-24T07:22:48;5.75;;;1.50;;
934;SDS011;454;53.254;10.400;2022-12-24T07:25:15;23.67;;;2.35;;
934;SDS011;454;53.254;10.400;2022-12-24T07:27:42;1.45;;;1.35;;
934;SDS011;454;53.254;10.400;2022-12-24T07:30:09;1.55;;;1.25;;
934;SDS011;454;53.254;10.400;2022-12-24T07:32:36;2.10;;;1.65;;
934;SDS011;454;53.254;10.400;2022-12-24T07:35:05;2.65;;;1.75;;
934;SDS011;454;53.254;10.400;2022-12-24T07:37:32;1.20;;;1.20;;
934;SDS011;454;53.254;10.400;2022-12-24T07:39:59;1.70;;;1.60;;
934;SDS011;454;53.254;10.400;2022-12-24T07:42:25;1.27;;;1.17;;
934;SDS011;454;53.254;10.400;2022-12-24T07:44:52;1.83;;;1.40;;
934;SDS011;454;53.254;10.400;2022-12-24T07:47:19;5.82;;;2.22;;
934;SDS011;454;53.254;10.400;2022-12-24T07:49:46;1.77;;;1.67;;
934;SDS011;454;53.254;10.400;2022-12-24T07:52:14;1.00;;;1.00;;
934;SDS011;454;53.254;10.400;2022-12-24T07:54:41;2.08;;;2.08;;
934;SDS011;454;53.254;10.400;2022-12-24T07:57:07;1.02;;;0.93;;
934;SDS011;454;53.254;10.400;2022-12-24T07:59:34;1.60;;;1.45;;
934;SDS011;454;53.254;10.400;2022-12-24T08:02:02;2.50;;;2.30;;
934;SDS011;454;53.254;10.400;2022-12-24T08:04:30;4.70;;;2.92;;
934;SDS011;454;53.254;10.400;2022-12-24T08:06:57;1.40;;;1.30;;
934;SDS011;454;53.254;10.400;2022-12-24T08:09:25;1.88;;;1.60;;
934;SDS011;454;53.254;10.400;2022-12-24T08:11:52;2.88;;;1.65;;
934;SDS011;454;53.254;10.400;2022-12-24T08:14:18;0.77;;;0.77;;
934;SDS011;454;53.254;10.400;2022-12-24T08:16:45;0.95;;;0.95;;
934;SDS011;454;53.254;10.400;2022-12-24T08:19:12;2.47;;;2.20;;
934;SDS011;454;53.254;10.400;2022-12-24T08:21:38;1.00;;;0.95;;
934;SDS011;454;53.254;10.400;2022-12-24T08:24:05;2.92;;;1.73;;
934;SDS011;454;53.254;10.400;2022-12-24T08:26:33;2.72;;;1.75;;
934;SDS011;454;53.254;10.400;2022-12-24T08:29:00;2.00;;;1.85;;
934;SDS011;454;53.254;10.400;2022-12-24T08:31:27;1.23;;;1.23;;
934;SDS011;454;53.254;10.400;2022-12-24T08:33:54;2.70;;;2.30;;
934;SDS011;454;53.254;10.400;2022-12-24T08:36:21;2.47;;;2.28;;
934;SDS011;454;53.254;10.400;2022-12-24T08:38:48;3.50;;;2.00;;
934;SDS011;454;53.254;10.400;2022-12-24T08:41:14;2.33;;;2.22;;
934;SDS011;454;53.254;10.400;2022-12-24T08:43:42;3.35;;;2.80;;
934;SDS011;454;53.254;10.400;2022-12-24T08:46:09;2.28;;;2.03;;
934;SDS011;454;53.254;10.400;2022-12-24T08:48:36;0.70;;;0.70;;
934;SDS011;454;53.254;10.400;2022-12-24T08:51:05;2.95;;;2.75;;
934;SDS011;454;53.254;10.400;2022-12-24T08:53:32;2.08;;;1.83;;
934;SDS011;454;53.254;10.400;2022-12-24T08:56:00;5.97;;;0.90;;
934;SDS011;454;53.254;10.400;2022-12-24T08:58:28;3.30;;;1.25;;
934;SDS011;454;53.254;10.400;2022-12-24T09:00:56;1.35;;;1.13;;
934;SDS011;454;53.254;10.400;2022-12-24T09:03:23;3.45;;;1.90;;
934;SDS011;454;53.254;10.400;2022-12-24T09:05:50;2.00;;;1.85;;
934;SDS011;454;53.254;10.400;2022-12-24T09:08:17;1.35;;;0.75;;
934;SDS011;454;53.254;10.400;2022-12-24T09:10:44;1.50;;;1.40;;
934;SDS011;454;53.254;10.400;2022-12-24T09:13:11;2.55;;;1.70;;
934;SDS011;454;53.254;10.400;2022-12-24T09:15:37;1.65;;;1.65;;
934;SDS011;454;53.254;10.400;2022-12-24T09:18:05;4.47;;;2.75;;
934;SDS011;454;53.254;10.400;2022-12-24T09:20:32;1.13;;;1.13;;
934;SDS011;454;53.254;10.400;2022-12-24T09:22:59;2.40;;;1.27;;
934;SDS011;454;53.254;10.400;2022-12-24T09:25:25;1.08;;;1.08;;
934;SDS011;454;53.254;10.400;2022-12-24T09:27:52;0.85;;;0.85;;
934;SDS011;454;53.254;10.400;2022-12-24T09:30:19;1.05;;;1.05;;
934;SDS011;454;53.254;10.400;2022-12-24T09:32:45;1.50;;;1.25;;
934;SDS011;454;53.254;10.400;2022-12-24T09:35:13;1.75;;;1.05;;
934;SDS011;454;53.254;10.400;2022-12-24T09:37:40;1.38;;;1.35;;
934;SDS011;454;53.254;10.400;2022-12-24T09:40:08;0.50;;;0.50;;
934;SDS011;454;53.254;10.400;2022-12-24T09:42:47;1.70;;;1.60;;
934;SDS011;454;53.254;10.400;2022-12-24T09:45:19;3.42;;;3.10;;
934;SDS011;454;53.254;10.400;2022-12-24T09:47:54;1.30;;;1.20;;
934;SDS011;454;53.254;10.400;2022-12-24T09:50:27;3.50;;;2.28;;
934;SDS011;454;53.254;10.400;2022-12-24T09:53:00;2.42;;;2.15;;
934;SDS011;454;53.254;10.400;2022-12-24T09:55:30;3.05;;;2.47;;
934;SDS011;454;53.254;10.400;2022-12-24T09:58:00;1.80;;;1.17;;
934;SDS011;454;53.254;10.400;2022-12-24T10:00:29;3.72;;;3.30;;
934;SDS011;454;53.254;10.400;2022-12-24T10:03:00;1.48;;;1.38;;
934;SDS011;454;53.254;10.400;2022-12-24T10:05:31;2.92;;;2.08;;
934;SDS011;454;53.254;10.400;2022-12-24T10:08:04;1.45;;;1.38;;
934;SDS011;454;53.254;10.400;2022-12-24T10:10:39;1.92;;;1.75;;
934;SDS011;454;53.254;10.400;2022-12-24T10:13:14;1.45;;;1.45;;
934;SDS011;454;53.254;10.400;2022-12-24T10:15:45;1.05;;;1.05;;
934;SDS011;454;53.254;10.400;2022-12-24T10:18:21;0.82;;;0.82;;
934;SDS011;454;53.254;10.400;2022-12-24T10:20:59;1.98;;;1.05;;
934;SDS011;454;53.254;10.400;2022-12-24T10:23:31;20.45;;;14.50;;
934;SDS011;454;53.254;10.400;2022-12-24T10:26:07;30.40;;;17.00;;
934;SDS011;454;53.254;10.400;2022-12-24T10:28:41;28.27;;;13.52;;
934;SDS011;454;53.254;10.400;2022-12-24T10:31:11;6.43;;;5.82;;
934;SDS011;454;53.254;10.400;2022-12-24T10:33:40;19.95;;;12.73;;
934;SDS011;454;53.254;10.400;2022-12-24T10:36:10;14.57;;;12.73;;
934;SDS011;454;53.254;10.400;2022-12-24T10:38:41;10.32;;;9.43;;
934;SDS011;454;53.254;10.400;2022-12-24T10:41:08;68.30;;;32.97;;
934;SDS011;454;53.254;10.400;2022-12-24T10:43:36;44.30;;;21.70;;
934;SDS011;454;53.254;10.400;2022-12-24T10:46:07;29.42;;;17.42;;
934;SDS011;454;53.254;10.400;2022-12-24T10:48:44;17.02;;;7.80;;
934;SDS011;454;53.254;10.400;2022-12-24T10:51:18;5.85;;;3.95;;
934;SDS011;454;53.254;10.400;2022-12-24T10:53:48;9.43;;;7.38;;
934;SDS011;454;53.254;10.400;2022-12-24T10:56:17;8.93;;;7.13;;
934;SDS011;454;53.254;10.400;2022-12-24T10:58:46;4.70;;;3.58;;
934;SDS011;454;53.254;10.400;2022-12-24T11:01:17;3.95;;;3.65;;
934;SDS011;454;53.254;10.400;2022-12-24T11:03:45;2.72;;;2.63;;
934;SDS011;454;53.254;10.400;2022-12-24T11:06:27;1.55;;;1.45;;
934;SDS011;454;53.254;10.400;2022-12-24T11:08:54;2.05;;;1.95;;
934;SDS011;454;53.254;10.400;2022-12-24T11:11:45;2.63;;;2.40;;
934;SDS011;454;53.254;10.400;2022-12-24T11:14:12;2.55;;;2.33;;
934;SDS011;454;53.254;10.400;2022-12-24T11:16:46;3.95;;;3.67;;
934;SDS011;454;53.254;10.400;2022-12-24T11:19:17;8.10;;;3.28;;
934;SDS011;454;53.254;10.400;2022-12-24T11:21:47;14.35;;;6.60;;
934;SDS011;454;53.254;10.400;2022-12-24T11:24:25;7.85;;;5.63;;
934;SDS011;454;53.254;10.400;2022-12-24T11:26:53;6.18;;;3.40;;
934;SDS011;454;53.254;10.400;2022-12-24T11:29:40;4.13;;;3.83;;
934;SDS011;454;53.254;10.400;2022-12-24T11:32:13;5.38;;;4.97;;
934;SDS011;454;53.254;10.400;2022-12-24T11:34:43;4.55;;;4.13;;
934;SDS011;454;53.254;10.400;2022-12-24T11:37:13;5.15;;;3.88;;
934;SDS011;454;53.254;10.400;2022-12-24T11:39:43;10.50;;;4.45;;
934;SDS011;454;53.254;10.400;2022-12-24T11:42:24;4.00;;;3.65;;
934;SDS011;454;53.254;10.400;2022-12-24T11:44:56;3.45;;;3.25;;
934;SDS011;454;53.254;10.400;2022-12-24T11:47:30;3.42;;;3.25;;
934;SDS011;454;53.254;10.400;2022-12-24T11:52:46;3.85;;;3.45;;
934;SDS011;454;53.254;10.400;2022-12-24T11:55:19;3.30;;;3.15;;
934;SDS011;454;53.254;10.400;2022-12-24T11:57:54;12.40;;;4.85;;
934;SDS011;454;53.254;10.400;2022-12-24T12:00:25;17.33;;;10.20;;
934;SDS011;454;53.254;10.400;2022-12-24T12:02:52;5.18;;;4.70;;
934;SDS011;454;53.254;10.400;2022-12-24T12:05:22;12.48;;;7.15;;
934;SDS011;454;53.254;10.400;2022-12-24T12:07:54;9.90;;;6.93;;
934;SDS011;454;53.254;10.400;2022-12-24T12:10:27;8.23;;;5.22;;
934;SDS011;454;53.254;10.400;2022-12-24T12:12:58;8.82;;;4.30;;
934;SDS011;454;53.254;10.400;2022-12-24T12:15:28;7.10;;;6.15;;
934;SDS011;454;53.254;10.400;2022-12-24T12:18:01;6.28;;;5.75;;
934;SDS011;454;53.254;10.400;2022-12-24T12:20:33;9.65;;;5.22;;
934;SDS011;454;53.254;10.400;2022-12-24T12:23:08;4.30;;;3.90;;
934;SDS011;454;53.254;10.400;2022-12-24T12:25:42;9.68;;;4.55;;
934;SDS011;454;53.254;10.400;2022-12-24T12:28:14;4.07;;;3.78;;
934;SDS011;454;53.254;10.400;2022-12-24T12:30:45;8.15;;;5.18;;
934;SDS011;454;53.254;10.400;2022-12-24T12:33:21;3.53;;;3.22;;
934;SDS011;454;53.254;10.400;2022-12-24T12:35:55;7.07;;;3.47;;
934;SDS011;454;53.254;10.400;2022-12-24T12:38:26;8.23;;;3.55;;
934;SDS011;454;53.254;10.400;2022-12-24T12:40:59;9.30;;;5.65;;
934;SDS011;454;53.254;10.400;2022-12-24T12:43:37;8.13;;;5.07;;
934;SDS011;454;53.254;10.400;2022-12-24T12:46:23;3.78;;;3.58;;
934;SDS011;454;53.254;10.400;2022-12-24T12:49:04;6.28;;;2.85;;
934;SDS011;454;53.254;10.400;2022-12-24T12:51:42;7.75;;;3.25;;
934;SDS011;454;53.254;10.400;2022-12-24T12:54:24;6.20;;;4.13;;
934;SDS011;454;53.254;10.400;2022-12-24T12:57:00;5.75;;;3.85;;
934;SDS011;454;53.254;10.400;2022-12-24T12:59:33;4.43;;;3.83;;
934;SDS011;454;53.254;10.400;2022-12-24T13:02:11;11.35;;;6.80;;
934;SDS011;454;53.254;10.400;2022-12-24T13:04:52;11.13;;;3.67;;
934;SDS011;454;53.254;10.400;2022-12-24T13:07:54;7.93;;;2.75;;
934;SDS011;454;53.254;10.400;2022-12-24T13:10:36;12.25;;;4.05;;
934;SDS011;454;53.254;10.400;2022-12-24T13:13:35;3.67;;;2.53;;
934;SDS011;454;53.254;10.400;2022-12-24T13:19:23;5.43;;;3.78;;
934;SDS011;454;53.254;10.400;2022-12-24T13:21:58;11.18;;;4.53;;
934;SDS011;454;53.254;10.400;2022-12-24T13:24:26;8.73;;;3.83;;
934;SDS011;454;53.254;10.400;2022-12-24T13:27:03;9.05;;;2.90;;
934;SDS011;454;53.254;10.400;2022-12-24T13:29:42;8.18;;;2.70;;
934;SDS011;454;53.254;10.400;2022-12-24T13:44:24;3.80;;;2.63;;
934;SDS011;454;53.254;10.400;2022-12-24T13:46:57;3.53;;;2.35;;
934;SDS011;454;53.254;10.400;2022-12-24T13:49:31;15.23;;;5.95;;
934;SDS011;454;53.254;10.400;2022-12-24T13:52:12;7.13;;;3.95;;
934;SDS011;454;53.254;10.400;2022-12-24T13:54:43;6.05;;;4.00;;
934;SDS011;454;53.254;10.400;2022-12-24T13:57:24;6.43;;;2.70;;
934;SDS011;454;53.254;10.400;2022-12-24T13:59:57;7.18;;;3.13;;
934;SDS011;454;53.254;10.400;2022-12-24T14:02:27;9.73;;;3.70;;
934;SDS011;454;53.254;10.400;2022-12-24T14:04:59;4.75;;;3.08;;
934;SDS011;454;53.254;10.400;2022-12-24T14:07:29;7.60;;;3.90;;
934;SDS011;454;53.254;10.400;2022-12-24T14:09:56;11.00;;;5.73;;
934;SDS011;454;53.254;10.400;2022-12-24T14:18:29;4.47;;;3.97;;
934;SDS011;454;53.254;10.400;2022-12-24T14:20:59;7.40;;;4.80;;
934;SDS011;454;53.254;10.400;2022-12-24T14:23:30;3.70;;;3.30;;
934;SDS011;454;53.254;10.400;2022-12-24T14:26:10;2.60;;;2.40;;
934;SDS011;454;53.254;10.400;2022-12-24T14:28:41;10.82;;;3.60;;
934;SDS011;454;53.254;10.400;2022-12-24T14:31:12;6.15;;;4.60;;
934;SDS011;454;53.254;10.400;2022-12-24T14:33:42;11.38;;;4.13;;
934;SDS011;454;53.254;10.400;2022-12-24T14:36:10;4.18;;;3.83;;
934;SDS011;454;53.254;10.400;2022-12-24T14:38:39;25.77;;;2.92;;
934;SDS011;454;53.254;10.400;2022-12-24T14:41:08;9.45;;;3.53;;
934;SDS011;454;53.254;10.400;2022-12-24T14:43:47;2.55;;;2.40;;
934;SDS011;454;53.254;10.400;2022-12-24T14:46:21;8.07;;;4.10;;
934;SDS011;454;53.254;10.400;2022-12-24T14:48:54;10.02;;;4.43;;
934;SDS011;454;53.254;10.400;2022-12-24T14:51:26;13.38;;;5.38;;
934;SDS011;454;53.254;10.400;2022-12-24T14:57:11;8.15;;;3.47;;
934;SDS011;454;53.254;10.400;2022-12-24T14:59:40;6.00;;;4.72;;
934;SDS011;454;53.254;10.400;2022-12-24T15:05:13;8.10;;;4.32;;
934;SDS011;454;53.254;10.400;2022-12-24T15:07:43;11.60;;;6.47;;
934;SDS011;454;53.254;10.400;2022-12-24T15:10:26;12.57;;;9.95;;
934;SDS011;454;53.254;10.400;2022-12-24T15:12:55;21.60;;;11.70;;
934;SDS011;454;53.254;10.400;2022-12-24T15:15:26;19.85;;;12.63;;
934;SDS011;454;53.254;10.400;2022-12-24T15:17:53;10.05;;;7.95;;
934;SDS011;454;53.254;10.400;2022-12-24T15:20:22;17.40;;;8.60;;
934;SDS011;454;53.254;10.400;2022-12-24T15:22:51;61.22;;;29.17;;
934;SDS011;454;53.254;10.400;2022-12-24T15:25:20;30.60;;;17.95;;
934;SDS011;454;53.254;10.400;2022-12-24T15:27:48;14.35;;;9.05;;
934;SDS011;454;53.254;10.400;2022-12-24T15:30:16;19.30;;;8.40;;
934;SDS011;454;53.254;10.400;2022-12-24T15:32:44;8.60;;;5.55;;
934;SDS011;454;53.254;10.400;2022-12-24T15:35:33;7.90;;;5.68;;
934;SDS011;454;53.254;10.400;2022-12-24T15:38:15;10.85;;;6.05;;
934;SDS011;454;53.254;10.400;2022-12-24T15:40:49;10.70;;;5.28;;
934;SDS011;454;53.254;10.400;2022-12-24T15:43:15;12.32;;;9.65;;
934;SDS011;454;53.254;10.400;2022-12-24T15:45:43;14.07;;;9.30;;
934;SDS011;454;53.254;10.400;2022-12-24T15:48:13;19.83;;;9.18;;
934;SDS011;454;53.254;10.400;2022-12-24T15:50:49;8.65;;;6.80;;
934;SDS011;454;53.254;10.400;2022-12-24T15:53:20;8.15;;;5.38;;
934;SDS011;454;53.254;10.400;2022-12-24T15:55:59;8.43;;;6.07;;
934;SDS011;454;53.254;10.400;2022-12-24T15:58:31;14.43;;;8.07;;
934;SDS011;454;53.254;10.400;2022-12-24T16:01:00;10.73;;;3.90;;
934;SDS011;454;53.254;10.400;2022-12-24T16:03:29;5.35;;;4.90;;
934;SDS011;454;53.254;10.400;2022-12-24T16:06:02;7.80;;;4.35;;
934;SDS011;454;53.254;10.400;2022-12-24T16:08:30;7.50;;;3.75;;
934;SDS011;454;53.254;10.400;2022-12-24T16:11:08;3.65;;;3.35;;
934;SDS011;454;53.254;10.400;2022-12-24T16:13:40;4.72;;;4.30;;
934;SDS011;454;53.254;10.400;2022-12-24T16:16:09;4.93;;;3.63;;
934;SDS011;454;53.254;10.400;2022-12-24T16:18:38;17.30;;;6.15;;
934;SDS011;454;53.254;10.400;2022-12-24T16:21:15;8.30;;;6.22;;
934;SDS011;454;53.254;10.400;2022-12-24T16:23:45;5.93;;;5.45;;
934;SDS011;454;53.254;10.400;2022-12-24T16:26:13;4.32;;;2.97;;
934;SDS011;454;53.254;10.400;2022-12-24T16:28:40;6.45;;;5.85;;
934;SDS011;454;53.254;10.400;2022-12-24T16:31:11;16.98;;;8.90;;
934;SDS011;454;53.254;10.400;2022-12-24T16:33:42;8.35;;;4.05;;
934;SDS011;454;53.254;10.400;2022-12-24T16:36:10;28.02;;;7.03;;
934;SDS011;454;53.254;10.400;2022-12-24T16:38:38;8.43;;;6.38;;
934;SDS011;454;53.254;10.400;2022-12-24T16:41:18;14.00;;;5.72;;
934;SDS011;454;53.254;10.400;2022-12-24T16:43:45;12.32;;;4.45;;
934;SDS011;454;53.254;10.400;2022-12-24T16:46:13;9.15;;;4.20;;
934;SDS011;454;53.254;10.400;2022-12-24T16:48:40;20.83;;;4.80;;
934;SDS011;454;53.254;10.400;2022-12-24T16:51:12;4.60;;;4.18;;
934;SDS011;454;53.254;10.400;2022-12-24T16:53:39;9.55;;;3.08;;
934;SDS011;454;53.254;10.400;2022-12-24T16:56:06;4.43;;;3.08;;
934;SDS011;454;53.254;10.400;2022-12-24T16:58:33;7.43;;;3.15;;
934;SDS011;454;53.254;10.400;2022-12-24T17:01:04;2.97;;;2.88;;
934;SDS011;454;53.254;10.400;2022-12-24T17:03:32;8.13;;;2.00;;
934;SDS011;454;53.254;10.400;2022-12-24T17:05:59;2.63;;;2.42;;
934;SDS011;454;53.254;10.400;2022-12-24T17:08:31;13.27;;;2.15;;
934;SDS011;454;53.254;10.400;2022-12-24T17:10:58;2.88;;;2.28;;
934;SDS011;454;53.254;10.400;2022-12-24T17:13:24;13.90;;;3.55;;
934;SDS011;454;53.254;10.400;2022-12-24T17:15:51;6.13;;;3.88;;
934;SDS011;454;53.254;10.400;2022-12-24T17:18:18;3.95;;;2.38;;
934;SDS011;454;53.254;10.400;2022-12-24T17:20:55;13.85;;;3.50;;
934;SDS011;454;53.254;10.400;2022-12-24T17:23:24;6.65;;;2.10;;
934;SDS011;454;53.254;10.400;2022-12-24T17:25:52;1.40;;;1.40;;
934;SDS011;454;53.254;10.400;2022-12-24T17:28:19;7.82;;;2.30;;
934;SDS011;454;53.254;10.400;2022-12-24T17:30:45;4.05;;;2.88;;
934;SDS011;454;53.254;10.400;2022-12-24T17:33:12;1.05;;;1.05;;
934;SDS011;454;53.254;10.400;2022-12-24T17:35:39;2.65;;;2.55;;
934;SDS011;454;53.254;10.400;2022-12-24T17:38:06;2.15;;;2.15;;
934;SDS011;454;53.254;10.400;2022-12-24T17:40:33;3.13;;;2.10;;
934;SDS011;454;53.254;10.400;2022-12-24T17:43:01;4.30;;;2.42;;
934;SDS011;454;53.254;10.400;2022-12-24T17:45:28;8.13;;;2.80;;
934;SDS011;454;53.254;10.400;2022-12-24T17:47:55;5.80;;;2.88;;
934;SDS011;454;53.254;10.400;2022-12-24T17:50:21;1.90;;;1.90;;
934;SDS011;454;53.254;10.400;2022-12-24T17:52:48;3.90;;;3.60;;
934;SDS011;454;53.254;10.400;2022-12-24T17:55:15;3.40;;;2.53;;
934;SDS011;454;53.254;10.400;2022-12-24T17:57:42;2.40;;;2.20;;
934;SDS011;454;53.254;10.400;2022-12-24T18:00:11;3.50;;;1.92;;
934;SDS011;454;53.254;10.400;2022-12-24T18:02:38;3.08;;;2.95;;
934;SDS011;454;53.254;10.400;2022-12-24T18:05:05;4.60;;;2.80;;
934;SDS011;454;53.254;10.400;2022-12-24T18:07:32;6.75;;;1.30;;
934;SDS011;454;53.254;10.400;2022-12-24T18:10:00;4.07;;;2.40;;
934;SDS011;454;53.254;10.400;2022-12-24T18:12:28;1.15;;;1.15;;
934;SDS011;454;53.254;10.400;2022-12-24T18:14:55;2.80;;;1.80;;
934;SDS011;454;53.254;10.400;2022-12-24T18:17:23;1.98;;;1.88;;
934;SDS011;454;53.254;10.400;2022-12-24T18:19:50;2.85;;;2.22;;
934;SDS011;454;53.254;10.400;2022-12-24T18:22:17;2.63;;;2.42;;
934;SDS011;454;53.254;10.400;2022-12-24T18:24:43;14.73;;;5.28;;
934;SDS011;454;53.254;10.400;2022-12-24T18:27:10;4.80;;;2.70;;
934;SDS011;454;53.254;10.400;2022-12-24T18:29:37;1.60;;;1.13;;
934;SDS011;454;53.254;10.400;2022-12-24T18:32:06;12.35;;;2.60;;
934;SDS011;454;53.254;10.400;2022-12-24T18:34:34;4.35;;;2.05;;
934;SDS011;454;53.254;10.400;2022-12-24T18:37:01;9.82;;;3.30;;
934;SDS011;454;53.254;10.400;2022-12-24T18:39:28;1.70;;;1.60;;
934;SDS011;454;53.254;10.400;2022-12-24T18:41:54;4.78;;;2.15;;
934;SDS011;454;53.254;10.400;2022-12-24T18:44:21;2.50;;;2.40;;
934;SDS011;454;53.254;10.400;2022-12-24T18:46:48;2.53;;;2.10;;
934;SDS011;454;53.254;10.400;2022-12-24T18:49:14;6.53;;;4.38;;
934;SDS011;454;53.254;10.400;2022-12-24T18:51:42;14.15;;;2.70;;
934;SDS011;454;53.254;10.400;2022-12-24T18:54:09;1.67;;;1.52;;
934;SDS011;454;53.254;10.400;2022-12-24T18:56:36;2.70;;;2.17;;
934;SDS011;454;53.254;10.400;2022-12-24T18:59:02;2.00;;;2.00;;
934;SDS011;454;53.254;10.400;2022-12-24T19:01:29;4.75;;;3.30;;
934;SDS011;454;53.254;10.400;2022-12-24T19:03:58;2.45;;;2.25;;
934;SDS011;454;53.254;10.400;2022-12-24T19:06:24;9.77;;;2.08;;
934;SDS011;454;53.254;10.400;2022-12-24T19:08:53;7.25;;;2.63;;
934;SDS011;454;53.254;10.400;2022-12-24T19:11:20;10.02;;;3.67;;
934;SDS011;454;53.254;10.400;2022-12-24T19:13:47;6.60;;;2.00;;
934;SDS011;454;53.254;10.400;2022-12-24T19:16:14;5.45;;;2.53;;
934;SDS011;454;53.254;10.400;2022-12-24T19:18:42;2.38;;;2.28;;
934;SDS011;454;53.254;10.400;2022-12-24T19:21:10;3.50;;;2.13;;
934;SDS011;454;53.254;10.400;2022-12-24T19:23:37;17.77;;;3.03;;
934;SDS011;454;53.254;10.400;2022-12-24T19:26:05;8.55;;;2.70;;
934;SDS011;454;53.254;10.400;2022-12-24T19:28:32;1.88;;;1.73;;
934;SDS011;454;53.254;10.400;2022-12-24T19:31:02;2.70;;;2.17;;
934;SDS011;454;53.254;10.400;2022-12-24T19:33:34;3.25;;;2.95;;
934;SDS011;454;53.254;10.400;2022-12-24T19:36:03;4.45;;;3.58;;
934;SDS011;454;53.254;10.400;2022-12-24T19:38:31;4.30;;;3.53;;
934;SDS011;454;53.254;10.400;2022-12-24T19:41:03;2.35;;;2.08;;
934;SDS011;454;53.254;10.400;2022-12-24T19:43:32;5.68;;;3.85;;
934;SDS011;454;53.254;10.400;2022-12-24T19:46:01;15.40;;;2.60;;
934;SDS011;454;53.254;10.400;2022-12-24T19:48:28;7.32;;;3.05;;
934;SDS011;454;53.254;10.400;2022-12-24T19:50:58;3.13;;;3.03;;
934;SDS011;454;53.254;10.400;2022-12-24T19:53:25;10.32;;;3.35;;
934;SDS011;454;53.254;10.400;2022-12-24T19:55:52;15.40;;;3.80;;
934;SDS011;454;53.254;10.400;2022-12-24T19:58:20;3.78;;;3.50;;
934;SDS011;454;53.254;10.400;2022-12-24T20:00:47;7.30;;;3.67;;
934;SDS011;454;53.254;10.400;2022-12-24T20:03:14;1.85;;;1.85;;
934;SDS011;454;53.254;10.400;2022-12-24T20:05:40;1.25;;;1.23;;
934;SDS011;454;53.254;10.400;2022-12-24T20:08:08;3.13;;;2.28;;
934;SDS011;454;53.254;10.400;2022-12-24T20:10:37;9.07;;;2.95;;
934;SDS011;454;53.254;10.400;2022-12-24T20:13:04;8.15;;;2.42;;
934;SDS011;454;53.254;10.400;2022-12-24T20:15:36;2.90;;;2.55;;
934;SDS011;454;53.254;10.400;2022-12-24T20:18:03;2.28;;;2.17;;
934;SDS011;454;53.254;10.400;2022-12-24T20:20:30;2.70;;;2.58;;
934;SDS011;454;53.254;10.400;2022-12-24T20:22:57;8.70;;;3.85;;
934;SDS011;454;53.254;10.400;2022-12-24T20:25:24;3.67;;;3.38;;
934;SDS011;454;53.254;10.400;2022-12-24T20:27:50;10.73;;;4.50;;
934;SDS011;454;53.254;10.400;2022-12-24T20:30:17;2.83;;;1.90;;
934;SDS011;454;53.254;10.400;2022-12-24T20:32:45;4.03;;;3.15;;
934;SDS011;454;53.254;10.400;2022-12-24T20:35:12;2.88;;;2.78;;
934;SDS011;454;53.254;10.400;2022-12-24T20:37:39;3.38;;;3.05;;
934;SDS011;454;53.254;10.400;2022-12-24T20:40:07;4.00;;;3.72;;
934;SDS011;454;53.254;10.400;2022-12-24T20:42:34;12.27;;;3.10;;
934;SDS011;454;53.254;10.400;2022-12-24T20:45:01;5.72;;;1.80;;
934;SDS011;454;53.254;10.400;2022-12-24T20:47:29;1.35;;;1.25;;
934;SDS011;454;53.254;10.400;2022-12-24T20:49:57;2.55;;;2.45;;
934;SDS011;454;53.254;10.400;2022-12-24T20:52:24;22.85;;;4.43;;
934;SDS011;454;53.254;10.400;2022-12-24T20:54:51;3.42;;;1.80;;
934;SDS011;454;53.254;10.400;2022-12-24T20:57:17;13.05;;;7.22;;
934;SDS011;454;53.254;10.400;2022-12-24T20:59:44;8.50;;;6.05;;
934;SDS011;454;53.254;10.400;2022-12-24T21:02:11;4.88;;;4.00;;
934;SDS011;454;53.254;10.400;2022-12-24T21:04:38;23.48;;;5.30;;
934;SDS011;454;53.254;10.400;2022-12-24T21:07:06;6.63;;;2.03;;
934;SDS011;454;53.254;10.400;2022-12-24T21:09:32;7.32;;;2.22;;
934;SDS011;454;53.254;10.400;2022-12-24T21:11:59;4.90;;;2.63;;
934;SDS011;454;53.254;10.400;2022-12-24T21:14:43;8.70;;;5.07;;